Time;durP1;ratioP1;P1;durP2;ratioP2;P2;SDS_P1;SDS_P2;PMS_P1;PMS_P2;Temp;Humidity;BMP_temperature;BMP_pressure;BME280_temperature;BME280_humidity;BME280_pressure;Samples;Min_cycle;Max_cycle;Signal;HPM_P1;HPM_P2
2021/03/28 00:01:52;;;;;;;14.97;13.77;;;5.60;99.90;;;;;;5109086;27;20862;-73
2021/03/28 00:04:21;;;;;;;15.37;13.93;;;5.60;99.90;;;;;;5122748;27;20462;-72
2021/03/28 00:07:00;;;;;;;15.13;13.57;;;5.70;99.90;;;;;;5111802;27;20497;-73
2021/03/28 00:09:39;;;;;;;15.10;13.80;;;5.80;99.90;;;;;;5117727;27;20457;-73
2021/03/28 00:12:11;;;;;;;14.73;13.30;;;5.90;99.90;;;;;;5121329;27;20825;-72
2021/03/28 00:14:44;;;;;;;17.50;14.50;;;5.90;99.90;;;;;;5114690;27;20472;-73
2021/03/28 00:17:28;;;;;;;18.37;14.50;;;6.00;99.90;;;;;;5115913;27;21087;-73
2021/03/28 00:19:59;;;;;;;15.73;14.13;;;6.00;99.90;;;;;;5115744;27;20460;-73
2021/03/28 00:22:31;;;;;;;19.60;15.57;;;6.10;99.90;;;;;;5116318;27;20488;-73
2021/03/28 00:25:06;;;;;;;14.83;13.53;;;6.10;99.90;;;;;;5121103;27;20592;-73
2021/03/28 00:27:40;;;;;;;15.30;13.83;;;6.10;99.90;;;;;;5119421;27;20493;-73
2021/03/28 00:30:21;;;;;;;17.90;14.10;;;6.10;99.90;;;;;;5117067;27;20469;-73
2021/03/28 00:32:52;;;;;;;15.63;14.53;;;6.20;99.90;;;;;;5115776;27;20471;-73
2021/03/28 00:35:22;;;;;;;17.33;15.60;;;6.30;99.90;;;;;;5113887;27;20456;-73
2021/03/28 00:38:08;;;;;;;16.60;15.07;;;6.30;99.90;;;;;;5117355;27;20456;-72
2021/03/28 00:40:37;;;;;;;16.23;14.70;;;6.40;99.90;;;;;;5122855;27;20460;-72
2021/03/28 00:43:16;;;;;;;16.00;14.50;;;6.40;99.90;;;;;;5117986;27;20461;-73
2021/03/28 00:45:51;;;;;;;15.40;13.87;;;6.40;99.90;;;;;;5114637;27;20538;-73
2021/03/28 00:48:21;;;;;;;15.50;14.30;;;6.40;99.90;;;;;;5118378;28;20508;-72
2021/03/28 00:50:52;;;;;;;15.80;14.20;;;6.40;99.90;;;;;;5116983;28;20461;-73
2021/03/28 00:53:37;;;;;;;16.87;15.30;;;6.40;99.90;;;;;;5120262;28;20548;-72
2021/03/28 00:56:08;;;;;;;15.57;14.23;;;6.40;99.90;;;;;;5118291;28;20468;-72
2021/03/28 00:58:47;;;;;;;16.47;15.10;;;6.50;99.90;;;;;;5113103;28;20477;-73
2021/03/28 01:01:28;;;;;;;15.27;14.07;;;6.50;99.90;;;;;;5116208;28;21052;-73
2021/03/28 01:04:34;;;;;;;16.13;14.90;;;6.50;99.90;;;;;;5120657;28;20456;-72
2021/03/28 01:07:12;;;;;;;20.00;15.73;;;6.50;99.90;;;;;;5114056;28;20490;-73
2021/03/28 01:09:59;;;;;;;18.20;14.73;;;6.60;99.90;;;;;;5109983;28;20452;-72
2021/03/28 01:12:57;;;;;;;16.63;14.80;;;6.50;99.90;;;;;;5117242;28;20456;-72
2021/03/28 01:16:01;;;;;;;16.30;14.70;;;6.60;99.90;;;;;;5110100;28;20465;-73
2021/03/28 01:18:32;;;;;;;16.43;14.90;;;6.50;99.90;;;;;;5119516;28;20463;-73
2021/03/28 01:21:07;;;;;;;15.47;14.33;;;6.60;99.90;;;;;;5122783;28;20463;-73
2021/03/28 01:23:37;;;;;;;15.37;14.20;;;6.60;99.90;;;;;;5117189;27;20483;-73
2021/03/28 01:26:14;;;;;;;16.30;14.40;;;6.70;99.90;;;;;;5119516;27;20452;-74
2021/03/28 01:28:47;;;;;;;15.43;14.13;;;6.70;99.90;;;;;;5124103;27;20554;-73
2021/03/28 01:31:33;;;;;;;15.87;14.37;;;6.70;99.90;;;;;;5124614;27;20458;-73
2021/03/28 01:34:05;;;;;;;15.83;14.30;;;6.70;99.90;;;;;;5119500;27;20448;-74
2021/03/28 01:36:37;;;;;;;15.23;14.07;;;6.70;99.90;;;;;;5123203;27;20465;-73
2021/03/28 01:39:16;;;;;;;19.20;15.20;;;6.60;99.90;;;;;;5122197;27;21012;-74
2021/03/28 01:41:50;;;;;;;16.93;14.23;;;6.60;99.90;;;;;;5118540;27;20453;-73
2021/03/28 01:44:25;;;;;;;15.77;14.37;;;6.60;99.90;;;;;;5119947;27;20455;-74
2021/03/28 01:47:05;;;;;;;16.37;15.10;;;6.60;99.90;;;;;;5121413;27;20484;-73
2021/03/28 01:49:46;;;;;;;16.90;15.50;;;6.50;99.90;;;;;;5120575;27;20452;-73
2021/03/28 01:52:24;;;;;;;16.20;14.07;;;6.50;99.90;;;;;;5111245;27;20456;-73
2021/03/28 01:55:07;;;;;;;17.67;14.67;;;6.50;99.90;;;;;;5121439;27;20452;-73
2021/03/28 01:57:48;;;;;;;15.07;13.97;;;6.40;99.90;;;;;;5118383;27;20460;-73
2021/03/28 02:00:38;;;;;;;28.40;14.80;;;6.30;99.90;;;;;;5114820;27;20460;-74
2021/03/28 02:03:15;;;;;;;15.67;14.17;;;6.10;99.90;;;;;;5121045;27;20540;-73
2021/03/28 02:05:52;;;;;;;16.60;14.90;;;5.90;99.90;;;;;;5120356;27;20858;-73
2021/03/28 02:08:27;;;;;;;15.83;14.33;;;5.70;99.90;;;;;;5122023;27;20457;-73
2021/03/28 02:11:27;;;;;;;16.33;14.40;;;5.70;99.90;;;;;;5123814;27;20484;-73
2021/03/28 02:14:10;;;;;;;20.67;15.90;;;5.60;99.90;;;;;;5052877;27;20464;-73
2021/03/28 02:16:54;;;;;;;16.27;14.00;;;5.40;99.90;;;;;;5110330;27;21370;-73
2021/03/28 02:19:24;;;;;;;15.67;14.07;;;5.40;99.90;;;;;;5124176;27;20978;-74
2021/03/28 02:21:59;;;;;;;15.10;14.10;;;5.30;99.90;;;;;;5113063;27;20449;-73
2021/03/28 02:24:31;;;;;;;16.33;14.17;;;5.30;99.90;;;;;;5122331;27;20456;-73
2021/03/28 02:27:10;;;;;;;17.03;15.20;;;5.20;99.90;;;;;;5120840;27;20477;-73
2021/03/28 02:29:47;;;;;;;17.47;16.03;;;5.20;99.90;;;;;;5121392;27;20452;-72
2021/03/28 02:32:50;;;;;;;17.10;15.60;;;5.20;99.90;;;;;;5123098;27;20593;-73
2021/03/28 02:35:43;;;;;;;15.57;14.37;;;5.20;99.90;;;;;;5032215;28;20464;-73
2021/03/28 02:38:17;;;;;;;19.53;15.67;;;5.10;99.90;;;;;;5118533;27;20798;-73
2021/03/28 02:40:50;;;;;;;16.60;15.10;;;5.10;99.90;;;;;;5123481;27;20460;-73
2021/03/28 02:43:29;;;;;;;15.10;13.73;;;5.00;99.90;;;;;;5119326;27;20489;-73
2021/03/28 02:46:20;;;;;;;14.80;13.73;;;4.90;99.90;;;;;;5117470;27;20456;-73
2021/03/28 02:49:02;;;;;;;14.80;13.90;;;4.90;99.90;;;;;;5117533;27;20453;-74
2021/03/28 02:51:59;;;;;;;16.17;14.97;;;4.80;99.90;;;;;;5109180;27;20453;-73
2021/03/28 02:54:57;;;;;;;16.10;14.23;;;4.70;99.90;;;;;;5122489;27;21009;-73
2021/03/28 02:57:40;;;;;;;16.53;14.33;;;4.70;99.90;;;;;;5123938;27;20460;-72
2021/03/28 03:00:16;;;;;;;18.33;14.20;;;4.70;99.90;;;;;;5110449;27;20469;-73
2021/03/28 03:03:16;;;;;;;16.33;14.63;;;4.60;99.90;;;;;;5115005;27;20453;-72
2021/03/28 03:06:05;;;;;;;15.70;14.07;;;4.60;99.90;;;;;;5116881;27;20994;-73
2021/03/28 03:08:37;;;;;;;14.67;13.53;;;4.60;99.90;;;;;;5118148;27;20461;-73
2021/03/28 03:11:25;;;;;;;16.07;14.47;;;4.60;99.90;;;;;;5120285;27;20468;-72
2021/03/28 03:14:23;;;;;;;15.77;14.37;;;4.60;99.90;;;;;;5115676;27;20468;-72
2021/03/28 03:17:28;;;;;;;16.00;14.43;;;4.60;99.90;;;;;;5119879;27;20452;-73
2021/03/28 03:20:18;;;;;;;15.63;14.07;;;4.70;99.90;;;;;;5111001;27;20489;-73
2021/03/28 03:23:24;;;;;;;16.23;14.77;;;4.80;99.90;;;;;;5120317;27;20843;-73
2021/03/28 03:26:11;;;;;;;15.07;13.73;;;4.80;99.90;;;;;;5109033;27;20508;-74
2021/03/28 03:29:28;;;;;;;14.63;13.43;;;4.80;99.90;;;;;;5111665;27;20452;-73
2021/03/28 03:32:34;;;;;;;18.40;14.80;;;4.80;99.90;;;;;;5109024;27;20460;-73
2021/03/28 03:35:27;;;;;;;15.30;14.13;;;4.80;99.90;;;;;;5118772;27;20461;-73
2021/03/28 03:38:35;;;;;;;24.13;13.07;;;4.80;99.90;;;;;;5112343;27;20453;-73
2021/03/28 03:41:14;;;;;;;14.90;13.47;;;4.90;99.90;;;;;;5117533;27;20456;-72
2021/03/28 03:44:00;;;;;;;17.83;12.73;;;4.90;99.90;;;;;;5120500;27;20856;-73
2021/03/28 03:46:43;;;;;;;24.30;14.67;;;4.80;99.90;;;;;;5119189;27;20492;-73
2021/03/28 03:49:27;;;;;;;16.77;13.30;;;4.80;99.90;;;;;;5117441;27;20465;-73
2021/03/28 03:52:07;;;;;;;15.53;12.20;;;4.80;99.90;;;;;;5115589;27;21002;-73
2021/03/28 03:54:50;;;;;;;14.30;13.07;;;4.80;99.90;;;;;;5119734;27;20460;-73
2021/03/28 03:57:29;;;;;;;14.03;12.83;;;4.90;99.90;;;;;;5117891;27;21421;-72
2021/03/28 04:00:06;;;;;;;14.97;13.10;;;4.90;99.90;;;;;;5113395;27;20466;-73
2021/03/28 04:02:41;;;;;;;18.40;13.00;;;5.00;99.90;;;;;;5116897;27;20516;-73
2021/03/28 04:05:19;;;;;;;14.37;12.97;;;5.00;99.90;;;;;;5119588;27;20459;-73
2021/03/28 04:08:13;;;;;;;15.67;13.33;;;5.00;99.90;;;;;;5108901;27;20975;-73
2021/03/28 04:10:48;;;;;;;14.53;13.13;;;5.10;99.90;;;;;;5121670;27;20497;-74
2021/03/28 04:13:28;;;;;;;13.93;13.00;;;5.10;99.90;;;;;;5118695;27;20469;-73
2021/03/28 04:16:16;;;;;;;13.30;12.30;;;5.00;99.90;;;;;;5110301;27;20816;-73
2021/03/28 04:19:23;;;;;;;13.97;12.67;;;5.10;99.90;;;;;;5115949;27;20461;-73
2021/03/28 04:22:17;;;;;;;13.23;12.23;;;5.10;99.90;;;;;;5118883;27;20861;-73
2021/03/28 04:24:54;;;;;;;13.73;12.63;;;5.20;99.90;;;;;;5119627;27;20457;-73
2021/03/28 04:27:46;;;;;;;17.77;13.03;;;5.30;99.90;;;;;;5117789;27;20843;-73
2021/03/28 04:30:44;;;;;;;15.03;13.40;;;5.40;99.90;;;;;;5119936;27;20526;-73
2021/03/28 04:33:23;;;;;;;13.63;12.73;;;5.40;99.90;;;;;;5108663;28;20457;-72
2021/03/28 04:36:11;;;;;;;15.10;13.53;;;5.50;99.90;;;;;;5116806;27;20453;-74
2021/03/28 04:38:53;;;;;;;14.63;13.40;;;5.50;99.90;;;;;;5118204;27;20456;-73
2021/03/28 04:42:02;;;;;;;15.00;13.40;;;5.50;99.90;;;;;;5120616;27;20515;-74
2021/03/28 04:45:14;;;;;;;16.60;13.47;;;5.50;99.90;;;;;;5115961;27;20954;-73
2021/03/28 04:48:08;;;;;;;14.50;13.20;;;5.40;99.90;;;;;;5068783;28;20487;-72
2021/03/28 04:51:14;;;;;;;14.03;13.03;;;5.50;99.90;;;;;;5076039;28;20513;-73
2021/03/28 04:54:18;;;;;;;13.37;12.57;;;5.50;99.90;;;;;;5116604;28;20468;-73
2021/03/28 04:57:19;;;;;;;13.43;12.47;;;5.60;99.90;;;;;;5118096;28;20830;-73
2021/03/28 05:00:37;;;;;;;14.10;12.80;;;5.80;99.90;;;;;;5116254;27;20539;-73
2021/03/28 05:03:46;;;;;;;14.10;12.87;;;5.90;99.90;;;;;;5127750;27;20464;-73
2021/03/28 05:06:44;;;;;;;14.03;13.13;;;6.00;99.90;;;;;;5102974;27;20530;-73
2021/03/28 05:09:38;;;;;;;16.77;14.30;;;6.10;99.90;;;;;;5115509;27;20802;-73
2021/03/28 05:12:24;;;;;;;15.30;14.00;;;6.20;99.90;;;;;;5123424;27;20528;-74
2021/03/28 05:15:43;;;;;;;16.97;12.40;;;6.30;99.90;;;;;;5120896;27;20471;-73
2021/03/28 05:18:57;;;;;;;14.77;13.10;;;6.40;99.90;;;;;;5039597;28;20567;-73
2021/03/28 05:21:48;;;;;;;13.23;12.43;;;6.60;99.90;;;;;;5037319;28;20570;-73
2021/03/28 05:24:53;;;;;;;13.53;12.53;;;6.60;99.90;;;;;;5116968;27;20978;-73
2021/03/28 05:28:07;;;;;;;16.17;14.47;;;6.60;99.90;;;;;;5072094;27;20484;-73
2021/03/28 05:30:56;;;;;;;14.10;13.13;;;6.60;99.90;;;;;;5112300;27;20460;-73
2021/03/28 05:33:50;;;;;;;13.37;12.33;;;6.70;99.90;;;;;;5113014;27;20460;-73
2021/03/28 05:36:27;;;;;;;15.63;14.43;;;6.60;99.90;;;;;;5120969;27;20823;-74
2021/03/28 05:39:36;;;;;;;16.93;13.10;;;6.70;99.90;;;;;;5119871;27;20461;-74
2021/03/28 05:42:23;;;;;;;15.03;13.53;;;6.70;99.90;;;;;;5121145;27;20461;-73
2021/03/28 05:45:12;;;;;;;13.80;12.87;;;6.70;99.90;;;;;;5116998;27;20466;-74
2021/03/28 05:47:53;;;;;;;15.23;13.60;;;6.80;99.90;;;;;;5117212;27;20484;-74
2021/03/28 05:50:26;;;;;;;14.93;13.53;;;7.10;99.90;;;;;;5119587;27;20461;-73
2021/03/28 05:53:26;;;;;;;14.93;13.57;;;7.10;99.90;;;;;;5121359;27;20449;-73
2021/03/28 05:56:24;;;;;;;13.90;13.00;;;7.20;99.90;;;;;;5120193;27;20480;-74
2021/03/28 05:59:12;;;;;;;13.53;12.70;;;7.50;99.90;;;;;;5075872;27;20799;-74
2021/03/28 06:02:05;;;;;;;13.97;12.93;;;7.60;99.90;;;;;;5115122;27;20468;-73
2021/03/28 06:05:15;;;;;;;13.93;12.93;;;7.60;99.90;;;;;;5117624;27;20463;-73
2021/03/28 06:08:11;;;;;;;14.20;13.20;;;7.70;99.90;;;;;;5117081;27;20486;-73
2021/03/28 06:11:03;;;;;;;16.70;14.10;;;7.80;99.90;;;;;;5110038;27;20837;-74
2021/03/28 06:13:59;;;;;;;14.77;13.77;;;7.90;99.90;;;;;;5114192;27;20884;-74
2021/03/28 06:16:54;;;;;;;15.37;14.07;;;7.90;99.90;;;;;;5113078;27;20945;-74
2021/03/28 06:19:50;;;;;;;15.00;13.67;;;8.00;99.90;;;;;;5099382;27;20460;-74
2021/03/28 06:22:56;;;;;;;14.70;13.20;;;8.10;99.90;;;;;;5114150;27;20461;-74
2021/03/28 06:26:04;;;;;;;15.80;14.47;;;8.20;99.90;;;;;;5117403;27;20453;-74
2021/03/28 06:29:09;;;;;;;18.63;12.83;;;8.20;99.90;;;;;;5118457;27;20811;-74
2021/03/28 06:32:13;;;;;;;14.53;13.13;;;8.30;99.90;;;;;;5115207;27;20460;-74
2021/03/28 06:35:12;;;;;;;14.77;13.30;;;8.40;99.90;;;;;;5116739;27;20498;-74
2021/03/28 06:38:05;;;;;;;14.87;13.57;;;8.50;99.90;;;;;;5120966;27;20491;-74
2021/03/28 06:41:02;;;;;;;13.70;12.90;;;8.50;99.90;;;;;;5112280;27;20471;-74
2021/03/28 06:44:03;;;;;;;14.40;13.40;;;8.60;99.90;;;;;;5057357;27;20607;-74
2021/03/28 06:47:00;;;;;;;14.60;13.57;;;8.70;99.90;;;;;;5092643;27;20471;-75
2021/03/28 06:50:02;;;;;;;13.43;12.43;;;8.70;99.90;;;;;;5108392;27;20550;-73
2021/03/28 06:52:49;;;;;;;15.00;13.70;;;8.90;99.90;;;;;;5115952;27;20479;-75
2021/03/28 06:55:36;;;;;;;15.07;13.80;;;9.00;99.90;;;;;;5115353;27;20506;-74
2021/03/28 06:58:46;;;;;;;14.93;13.60;;;9.10;99.90;;;;;;5112049;27;20468;-74
2021/03/28 07:01:44;;;;;;;14.70;13.40;;;9.20;99.90;;;;;;5104234;27;21194;-75
2021/03/28 07:04:52;;;;;;;13.47;12.67;;;9.30;99.90;;;;;;5107290;27;20970;-75
2021/03/28 07:07:50;;;;;;;14.60;13.60;;;9.50;99.90;;;;;;5102787;27;20494;-74
2021/03/28 07:10:30;;;;;;;14.47;13.37;;;9.60;99.90;;;;;;5108938;27;20488;-74
2021/03/28 07:13:24;;;;;;;14.80;13.60;;;9.70;99.90;;;;;;5110181;27;20867;-74
2021/03/28 07:16:13;;;;;;;14.13;12.90;;;9.80;99.90;;;;;;5110931;27;20457;-73
2021/03/28 07:19:01;;;;;;;15.53;13.80;;;9.90;99.90;;;;;;5113607;27;20463;-74
2021/03/28 07:21:45;;;;;;;14.57;13.50;;;9.90;99.90;;;;;;5115962;27;20544;-74
2021/03/28 07:24:51;;;;;;;15.90;13.67;;;10.10;99.90;;;;;;5116511;27;20499;-73
2021/03/28 07:27:45;;;;;;;15.60;13.53;;;10.30;99.90;;;;;;5114538;27;20484;-73
2021/03/28 07:30:35;;;;;;;16.30;15.10;;;10.50;99.90;;;;;;5110667;27;20468;-74
2021/03/28 07:33:38;;;;;;;15.30;13.90;;;10.60;99.90;;;;;;5114317;27;20461;-74
2021/03/28 07:36:31;;;;;;;14.23;13.13;;;10.70;99.90;;;;;;5085472;27;20458;-72
2021/03/28 07:39:47;;;;;;;14.60;13.30;;;10.80;99.90;;;;;;5115325;27;20461;-74
2021/03/28 07:42:49;;;;;;;14.97;13.87;;;10.90;99.90;;;;;;5115804;27;20462;-74
2021/03/28 07:45:52;;;;;;;15.20;14.00;;;11.10;99.90;;;;;;5040321;27;20456;-76
2021/03/28 07:48:54;;;;;;;15.10;13.80;;;11.20;99.90;;;;;;5113630;27;20502;-76
2021/03/28 07:51:59;;;;;;;16.13;14.27;;;11.10;99.90;;;;;;5109628;27;20817;-74
2021/03/28 07:54:52;;;;;;;15.07;13.90;;;11.20;99.90;;;;;;5116143;27;20458;-75
2021/03/28 07:57:46;;;;;;;15.77;14.20;;;11.00;99.90;;;;;;5111581;27;20453;-75
2021/03/28 08:00:31;;;;;;;14.07;13.13;;;10.90;99.90;;;;;;5111236;27;21036;-73
2021/03/28 08:03:38;;;;;;;14.57;13.47;;;10.70;99.90;;;;;;5109437;27;20461;-75
2021/03/28 08:06:20;;;;;;;16.50;13.40;;;10.70;99.90;;;;;;5050895;27;20457;-75
2021/03/28 08:09:02;;;;;;;14.03;13.07;;;10.80;99.90;;;;;;5110381;27;20889;-74
2021/03/28 08:12:01;;;;;;;13.93;12.87;;;10.90;99.90;;;;;;5110344;27;20568;-75
2021/03/28 08:14:53;;;;;;;14.37;13.17;;;10.90;99.90;;;;;;5109256;27;20865;-75
2021/03/28 08:17:36;;;;;;;14.40;13.00;;;10.90;99.90;;;;;;5110131;27;20521;-75
2021/03/28 08:20:30;;;;;;;13.40;12.50;;;11.20;99.90;;;;;;5117758;27;20461;-74
2021/03/28 08:23:15;;;;;;;13.83;12.80;;;11.30;99.90;;;;;;5113509;27;20485;-76
2021/03/28 08:25:58;;;;;;;20.47;12.93;;;11.30;99.90;;;;;;5114801;27;20456;-73
2021/03/28 08:29:12;;;;;;;15.80;13.87;;;11.30;99.90;;;;;;5114986;27;20542;-75
2021/03/28 08:31:48;;;;;;;14.20;12.87;;;11.50;99.90;;;;;;5113865;27;20560;-76
2021/03/28 08:34:53;;;;;;;14.60;13.60;;;11.70;99.90;;;;;;5118445;27;20469;-74
2021/03/28 08:37:53;;;;;;;14.57;13.50;;;11.80;99.90;;;;;;5112743;27;20475;-74
2021/03/28 08:40:56;;;;;;;16.00;14.70;;;11.70;99.90;;;;;;5101676;27;20472;-74
2021/03/28 08:43:49;;;;;;;15.83;14.63;;;11.70;99.90;;;;;;5098728;28;20464;-75
2021/03/28 08:46:48;;;;;;;15.50;14.03;;;11.90;99.90;;;;;;5112335;27;20459;-73
2021/03/28 08:49:20;;;;;;;13.47;12.70;;;11.90;99.90;;;;;;5117047;28;20453;-73
2021/03/28 08:52:17;;;;;;;13.80;12.83;;;11.90;99.90;;;;;;5111165;28;20459;-73
2021/03/28 08:54:53;;;;;;;13.93;12.90;;;12.00;99.90;;;;;;5080332;28;20974;-75
2021/03/28 08:57:30;;;;;;;14.43;12.70;;;12.00;99.90;;;;;;5112177;28;20470;-75
2021/03/28 09:00:31;;;;;;;15.07;13.70;;;12.10;99.90;;;;;;5107502;28;20461;-76
2021/03/28 09:03:23;;;;;;;14.23;12.80;;;12.10;99.90;;;;;;5095762;28;20866;-74
2021/03/28 09:05:53;;;;;;;15.27;14.20;;;12.10;99.90;;;;;;5109112;28;20445;-74
2021/03/28 09:08:32;;;;;;;14.13;13.13;;;12.00;99.90;;;;;;5112695;28;20485;-74
2021/03/28 09:11:25;;;;;;;14.70;13.30;;;12.10;99.90;;;;;;5110633;28;20472;-75
2021/03/28 09:13:58;;;;;;;15.67;14.47;;;12.20;99.90;;;;;;5113485;28;20503;-74
2021/03/28 09:16:43;;;;;;;15.03;13.83;;;12.30;99.90;;;;;;5118273;28;20459;-76
2021/03/28 09:19:41;;;;;;;14.60;13.80;;;12.20;99.90;;;;;;5116887;28;20489;-74
2021/03/28 09:22:18;;;;;;;14.83;13.77;;;12.30;99.90;;;;;;5109548;28;20464;-73
2021/03/28 09:24:53;;;;;;;14.43;13.63;;;12.20;99.90;;;;;;5112435;28;20570;-74
2021/03/28 09:27:43;;;;;;;15.17;14.00;;;12.20;99.90;;;;;;5117596;28;21008;-75
2021/03/28 09:30:27;;;;;;;13.40;12.60;;;12.20;99.90;;;;;;5096199;28;20489;-76
2021/03/28 09:33:12;;;;;;;15.07;13.70;;;12.40;99.90;;;;;;5114535;28;20441;-75
2021/03/28 09:36:10;;;;;;;15.60;14.40;;;12.70;99.90;;;;;;5109355;28;20457;-75
2021/03/28 09:39:31;;;;;;;14.20;13.30;;;12.70;99.90;;;;;;5108556;28;20530;-73
2021/03/28 09:42:46;;;;;;;15.10;14.10;;;13.30;99.90;;;;;;5109047;28;20453;-76
2021/03/28 09:45:38;;;;;;;14.63;13.50;;;13.20;99.90;;;;;;5121018;27;20452;-73
2021/03/28 09:48:27;;;;;;;14.97;14.03;;;13.70;99.90;;;;;;5123533;27;21456;-73
2021/03/28 09:51:03;;;;;;;16.63;14.73;;;14.00;99.90;;;;;;5116989;27;20464;-74
2021/03/28 09:53:46;;;;;;;14.83;13.60;;;13.80;99.90;;;;;;5114853;27;20488;-76
2021/03/28 09:56:45;;;;;;;15.00;13.90;;;13.80;99.90;;;;;;5107204;27;20850;-74
2021/03/28 09:59:29;;;;;;;14.87;13.97;;;13.80;99.90;;;;;;5117012;27;20550;-74
2021/03/28 10:02:12;;;;;;;15.73;14.70;;;14.00;99.90;;;;;;5113915;27;20891;-74
2021/03/28 10:05:10;;;;;;;16.30;14.70;;;14.40;99.90;;;;;;5119784;27;20456;-74
2021/03/28 10:07:46;;;;;;;14.60;13.60;;;14.40;99.90;;;;;;5116720;27;20874;-73
2021/03/28 10:10:29;;;;;;;14.50;13.57;;;14.00;99.90;;;;;;5119677;27;20968;-74
2021/03/28 10:13:07;;;;;;;14.87;13.77;;;14.30;99.90;;;;;;5118978;27;20970;-75
2021/03/28 10:15:40;;;;;;;15.30;14.10;;;14.60;99.90;;;;;;5121856;27;20975;-73
2021/03/28 10:18:18;;;;;;;14.73;13.63;;;14.10;99.90;;;;;;5122987;27;20475;-73
2021/03/28 10:21:06;;;;;;;14.57;12.97;;;14.00;99.90;;;;;;5118099;27;20460;-74
2021/03/28 10:23:48;;;;;;;14.00;13.07;;;13.90;99.90;;;;;;5119779;27;20526;-74
2021/03/28 10:26:32;;;;;;;14.07;13.03;;;14.10;99.90;;;;;;5117073;27;20486;-73
2021/03/28 10:29:28;;;;;;;15.60;14.60;;;14.30;99.90;;;;;;5115779;27;20493;-76
2021/03/28 10:32:04;;;;;;;15.47;14.27;;;14.20;99.90;;;;;;5100279;27;20457;-73
2021/03/28 10:35:07;;;;;;;14.87;13.40;;;13.90;99.90;;;;;;5113229;27;20449;-76
2021/03/28 10:37:45;;;;;;;15.10;13.90;;;14.30;99.90;;;;;;5110267;27;20452;-76
2021/03/28 10:40:48;;;;;;;14.93;14.00;;;14.70;99.90;;;;;;5126049;27;20471;-74
2021/03/28 10:43:48;;;;;;;15.47;14.30;;;14.80;99.90;;;;;;5115950;27;20521;-75
2021/03/28 10:46:50;;;;;;;16.87;15.73;;;15.00;99.90;;;;;;5122100;27;20971;-75
2021/03/28 10:49:44;;;;;;;15.50;14.50;;;15.00;99.90;;;;;;5122087;27;20460;-72
2021/03/28 10:52:43;;;;;;;16.17;15.00;;;14.70;99.90;;;;;;5112111;27;20468;-73
2021/03/28 10:55:53;;;;;;;14.63;13.53;;;14.40;99.90;;;;;;5121756;27;20464;-74
2021/03/28 10:58:58;;;;;;;16.60;15.40;;;14.20;99.90;;;;;;5114192;27;20500;-76
2021/03/28 11:02:10;;;;;;;15.70;14.70;;;13.80;99.90;;;;;;5113593;27;20490;-76
2021/03/28 11:05:12;;;;;;;16.37;15.07;;;14.30;99.90;;;;;;5108668;27;20590;-76
2021/03/28 11:07:59;;;;;;;16.10;14.50;;;14.70;99.90;;;;;;5108710;27;20485;-72
2021/03/28 11:11:04;;;;;;;14.43;13.53;;;15.00;99.90;;;;;;5103076;27;20539;-73
2021/03/28 11:14:04;;;;;;;15.17;14.07;;;14.50;99.90;;;;;;5111874;27;20472;-73
2021/03/28 11:16:52;;;;;;;14.57;13.70;;;14.40;99.90;;;;;;5112304;27;20461;-76
2021/03/28 11:19:57;;;;;;;15.20;14.13;;;14.40;99.90;;;;;;5107627;27;20938;-73
2021/03/28 11:22:34;;;;;;;16.50;15.20;;;14.40;99.90;;;;;;5115205;27;20461;-73
2021/03/28 11:25:16;;;;;;;16.53;15.10;;;14.50;99.90;;;;;;5111777;27;20460;-76
2021/03/28 11:28:31;;;;;;;15.30;14.37;;;14.50;99.90;;;;;;5116557;27;20988;-72
2021/03/28 11:31:15;;;;;;;15.50;14.33;;;14.60;99.90;;;;;;5119960;27;20883;-74
2021/03/28 11:33:56;;;;;;;14.93;13.87;;;14.60;99.90;;;;;;5113355;27;20460;-73
2021/03/28 11:36:25;;;;;;;15.67;14.33;;;14.50;99.90;;;;;;5107964;27;20460;-73
2021/03/28 11:39:21;;;;;;;15.43;14.50;;;14.90;99.90;;;;;;5117313;27;20460;-74
2021/03/28 11:41:52;;;;;;;14.17;13.30;;;14.90;99.90;;;;;;5110185;27;20857;-73
2021/03/28 11:44:27;;;;;;;16.03;14.60;;;15.20;99.90;;;;;;5105701;27;20610;-72
2021/03/28 11:46:59;;;;;;;14.57;13.77;;;15.50;99.90;;;;;;5106774;27;20461;-72
2021/03/28 11:49:33;;;;;;;14.67;13.87;;;15.70;99.90;;;;;;5115617;27;20833;-73
2021/03/28 11:52:16;;;;;;;14.30;13.40;;;15.80;99.90;;;;;;5108690;27;20457;-71
2021/03/28 11:54:58;;;;;;;15.50;14.47;;;15.80;99.90;;;;;;5105770;27;20514;-73
2021/03/28 11:57:31;;;;;;;14.17;13.37;;;16.20;99.90;;;;;;5113229;27;20452;-73
2021/03/28 12:00:21;;;;;;;17.67;13.83;;;16.90;99.90;;;;;;5109737;27;20456;-72
2021/03/28 12:03:23;;;;;;;14.70;13.77;;;17.40;99.90;;;;;;5119006;27;20468;-72
2021/03/28 12:05:53;;;;;;;14.00;13.17;;;16.70;99.60;;;;;;5116722;27;20470;-72
2021/03/28 12:08:21;;;;;;;14.63;13.77;;;16.50;99.90;;;;;;5119960;27;20489;-71
2021/03/28 12:10:49;;;;;;;15.60;14.10;;;16.30;99.90;;;;;;5121889;27;20487;-72
2021/03/28 12:13:44;;;;;;;13.30;12.60;;;15.70;99.90;;;;;;5116436;27;20506;-72
2021/03/28 12:16:11;;;;;;;14.73;13.73;;;15.10;99.10;;;;;;5104824;27;20535;-72
2021/03/28 12:18:50;;;;;;;17.40;15.70;;;15.10;99.90;;;;;;5121076;27;20460;-72
2021/03/28 12:21:42;;;;;;;15.10;14.10;;;14.80;99.90;;;;;;5116419;27;20472;-72
2021/03/28 12:24:12;;;;;;;14.90;13.93;;;15.00;99.90;;;;;;5105946;28;20609;-72
2021/03/28 12:26:52;;;;;;;13.80;13.00;;;15.10;99.90;;;;;;5106855;27;20468;-73
2021/03/28 12:29:45;;;;;;;14.47;13.67;;;15.70;99.90;;;;;;5107755;27;20453;-72
2021/03/28 12:32:49;;;;;;;14.23;13.33;;;16.10;99.00;;;;;;5110737;27;20545;-72
2021/03/28 12:35:26;;;;;;;15.33;14.07;;;15.80;99.50;;;;;;5112376;27;20456;-72
2021/03/28 12:37:54;;;;;;;15.17;14.17;;;16.10;99.60;;;;;;5108470;27;20480;-73
2021/03/28 12:40:33;;;;;;;15.37;14.13;;;16.50;99.40;;;;;;5106092;28;20465;-73
2021/03/28 12:43:02;;;;;;;15.43;14.50;;;16.90;99.80;;;;;;5113599;27;20962;-72
2021/03/28 12:45:36;;;;;;;16.20;15.00;;;16.80;99.30;;;;;;5110300;27;20940;-71
2021/03/28 12:48:06;;;;;;;15.10;13.70;;;16.50;99.90;;;;;;5105868;28;20491;-74
2021/03/28 12:50:42;;;;;;;14.83;13.73;;;16.60;98.50;;;;;;5102531;28;20764;-71
2021/03/28 12:53:14;;;;;;;13.90;13.00;;;16.70;98.40;;;;;;5107080;28;20471;-73
2021/03/28 12:55:44;;;;;;;15.10;14.20;;;16.30;98.80;;;;;;5109036;28;20464;-71
2021/03/28 12:58:17;;;;;;;15.60;14.40;;;15.90;98.80;;;;;;5107019;28;20560;-71
2021/03/28 13:00:50;;;;;;;14.30;13.43;;;15.70;99.60;;;;;;5107754;28;20488;-71
2021/03/28 13:03:26;;;;;;;15.03;13.40;;;15.50;99.90;;;;;;5110109;28;21253;-71
2021/03/28 13:06:19;;;;;;;14.23;13.30;;;15.50;99.90;;;;;;5108686;28;20465;-74
2021/03/28 13:08:50;;;;;;;15.40;14.40;;;15.30;99.90;;;;;;5114946;28;20591;-71
2021/03/28 13:11:27;;;;;;;14.23;13.17;;;15.50;99.90;;;;;;5111412;28;20817;-74
2021/03/28 13:13:54;;;;;;;15.97;14.50;;;15.60;99.90;;;;;;5107497;28;20465;-71
2021/03/28 13:16:25;;;;;;;14.80;13.80;;;15.90;99.90;;;;;;5108861;28;20604;-72
2021/03/28 13:18:52;;;;;;;14.73;13.20;;;15.80;99.90;;;;;;5114543;28;20576;-74
2021/03/28 13:21:24;;;;;;;14.70;13.53;;;16.00;99.90;;;;;;5112756;27;20553;-72
2021/03/28 13:24:01;;;;;;;15.33;14.17;;;15.80;99.00;;;;;;5108663;27;20486;-72
2021/03/28 13:26:28;;;;;;;13.00;12.30;;;16.00;99.80;;;;;;5113196;27;20464;-72
2021/03/28 13:29:17;;;;;;;14.53;13.53;;;16.20;99.90;;;;;;5116921;27;20554;-72
2021/03/28 13:31:52;;;;;;;14.53;13.63;;;16.40;99.60;;;;;;5107988;27;20464;-72
2021/03/28 13:34:31;;;;;;;15.40;13.77;;;16.40;99.50;;;;;;5108420;27;20635;-74
2021/03/28 13:37:12;;;;;;;14.50;13.17;;;16.10;99.20;;;;;;5110670;27;20456;-70
2021/03/28 13:39:54;;;;;;;15.20;14.20;;;15.90;99.30;;;;;;5106908;27;20968;-72
2021/03/28 13:42:25;;;;;;;14.30;13.23;;;15.60;97.90;;;;;;5103168;27;20824;-72
2021/03/28 13:45:06;;;;;;;16.27;15.10;;;15.40;98.60;;;;;;5107674;27;20576;-72
2021/03/28 13:47:43;;;;;;;15.43;14.23;;;15.20;98.90;;;;;;5111785;27;20492;-73
2021/03/28 13:50:43;;;;;;;14.50;13.60;;;15.20;99.60;;;;;;5103293;27;20453;-71
2021/03/28 13:53:32;;;;;;;14.07;13.27;;;15.10;99.70;;;;;;5099979;27;20476;-72
2021/03/28 13:56:24;;;;;;;15.90;14.63;;;15.30;99.60;;;;;;5098592;28;20471;-72
2021/03/28 13:59:15;;;;;;;14.60;13.60;;;15.30;99.60;;;;;;5082179;27;20533;-72
2021/03/28 14:01:51;;;;;;;15.57;14.10;;;15.30;99.90;;;;;;5110862;27;20467;-72
2021/03/28 14:04:23;;;;;;;15.07;13.87;;;15.30;99.60;;;;;;5113025;27;20455;-70
2021/03/28 14:07:08;;;;;;;15.63;14.10;;;15.20;99.90;;;;;;5103417;27;20544;-73
2021/03/28 14:09:38;;;;;;;15.40;14.20;;;15.40;99.90;;;;;;5118281;27;20496;-72
2021/03/28 14:12:09;;;;;;;16.53;14.90;;;15.50;99.00;;;;;;5117357;28;20480;-72
2021/03/28 14:14:39;;;;;;;14.47;13.67;;;15.50;99.10;;;;;;5111213;28;20468;-72